Time;durP1;ratioP1;P1;durP2;ratioP2;P2;SDS_P1;SDS_P2;PMS_P1;PMS_P2;Temp;Humidity;BMP_temperature;BMP_pressure;BME280_temperature;BME280_humidity;BME280_pressure;Samples;Min_cycle;Max_cycle;Signal;HPM_P1;HPM_P2
2021/04/25 08:29:56;;;;;;;10.15;6.55;;;;;;;31.85;17.42;93964.19;5063873;27;21046;-80
2021/04/25 08:32:21;;;;;;;13.48;6.40;;;;;;;32.60;16.52;93952.50;5082966;28;20028;-82
2021/04/25 08:34:47;;;;;;;7.45;5.50;;;;;;;33.15;15.66;93961.81;5044780;28;20037;-80
2021/04/25 08:37:12;;;;;;;12.40;5.85;;;;;;;32.92;16.58;93963.53;5045688;28;20516;-81
2021/04/25 08:40:32;;;;;;;9.68;6.55;;;;;;;30.97;17.48;93969.19;5031641;28;20129;-85
2021/04/25 08:53:03;;;;;;;9.15;6.78;;;;;;;33.15;15.88;93940.66;4962321;28;20106;-84
2021/04/25 08:55:29;;;;;;;10.13;6.78;;;;;;;32.51;16.21;93955.03;5059431;28;20148;-85
2021/04/25 08:57:55;;;;;;;7.63;5.90;;;;;;;32.90;15.91;93957.69;5051617;28;20396;-85
2021/04/25 09:00:21;;;;;;;6.45;5.82;;;;;;;32.20;16.97;93949.84;5042608;28;20048;-85
2021/04/25 09:02:47;;;;;;;6.82;5.65;;;;;;;33.45;15.09;93948.53;5042460;28;20044;-82
2021/04/25 09:05:13;;;;;;;7.38;5.72;;;;;;;33.10;15.86;93932.97;5032606;28;20406;-87
2021/04/25 09:07:59;;;;;;;11.15;5.68;;;;;;;33.41;15.33;93922.44;5046530;28;20047;-88
2021/04/25 09:10:30;;;;;;;6.75;4.53;;;;;;;33.24;14.66;93929.91;5046218;28;20736;-82
2021/04/25 09:13:13;;;;;;;8.00;5.50;;;;;;;32.63;15.29;93935.25;5041230;28;20052;-85
2021/04/25 09:15:41;;;;;;;6.65;4.80;;;;;;;31.85;15.75;93927.88;5042592;28;20029;-87
2021/04/25 09:18:07;;;;;;;7.68;5.68;;;;;;;31.46;15.75;93929.38;5048137;28;20047;-86
2021/04/25 09:20:47;;;;;;;6.15;4.85;;;;;;;31.38;15.61;93917.78;5040959;28;20052;-85
2021/04/25 09:23:22;;;;;;;9.48;4.93;;;;;;;32.03;14.91;93912.66;5045398;28;20053;-87
2021/04/25 09:26:05;;;;;;;9.27;4.65;;;;;;;32.19;14.29;93917.44;5048196;28;20067;-85
2021/04/25 09:28:31;;;;;;;5.60;3.97;;;;;;;31.79;14.03;93909.25;5061993;28;20337;-86
2021/04/25 09:31:04;;;;;;;7.07;4.55;;;;;;;30.47;15.22;93909.13;5062805;28;20037;-83
2021/04/25 09:33:50;;;;;;;6.45;4.72;;;;;;;29.14;16.30;93918.41;5042859;28;20059;-86
2021/04/25 09:36:21;;;;;;;7.85;4.85;;;;;;;29.18;14.81;93905.53;5040590;28;20041;-88
2021/04/25 09:38:46;;;;;;;5.18;4.43;;;;;;;28.90;15.21;93875.88;5043475;28;20048;-87
2021/04/25 09:41:32;;;;;;;7.75;3.85;;;;;;;28.98;15.83;93904.59;5028313;28;20582;-89
2021/04/25 09:43:58;;;;;;;7.07;3.55;;;;;;;28.82;15.68;93900.44;5031159;28;20897;-87
2021/04/25 09:46:44;;;;;;;4.72;2.40;;;;;;;28.46;15.14;93884.75;5031870;28;20021;-88
2021/04/25 09:49:10;;;;;;;5.70;3.75;;;;;;;26.90;16.70;93896.97;5027453;28;20048;-87
2021/04/25 09:51:42;;;;;;;8.75;3.63;;;;;;;25.20;16.84;93901.91;5031320;28;20033;-84
2021/04/25 09:54:07;;;;;;;5.85;3.40;;;;;;;25.08;17.44;93894.09;5033535;28;20037;-84
2021/04/25 09:56:38;;;;;;;4.68;3.33;;;;;;;23.97;17.59;93890.81;5024477;28;20044;-82
2021/04/25 09:59:08;;;;;;;7.35;4.22;;;;;;;22.02;21.16;93888.03;5026050;28;20460;-85
2021/04/25 10:01:38;;;;;;;8.57;5.05;;;;;;;21.59;21.03;93889.13;5030857;28;20037;-86
2021/04/25 10:04:25;;;;;;;4.40;3.80;;;;;;;21.52;21.44;93865.56;5028785;28;20575;-84
2021/04/25 10:06:52;;;;;;;5.93;3.97;;;;;;;21.12;20.44;93863.19;5031109;28;20083;-87
2021/04/25 10:09:19;;;;;;;7.75;3.80;;;;;;;21.94;20.20;93876.34;5026814;28;20081;-85
2021/04/25 10:11:46;;;;;;;11.35;2.80;;;;;;;21.72;17.12;93860.94;5031537;28;20064;-84
2021/04/25 10:14:14;;;;;;;3.22;2.42;;;;;;;21.14;16.67;93860.19;5031861;28;20435;-83
2021/04/25 10:16:43;;;;;;;3.78;2.30;;;;;;;20.59;18.63;93869.31;5025613;28;20029;-83
2021/04/25 10:19:16;;;;;;;7.95;2.88;;;;;;;20.67;18.48;93857.63;5027964;28;20067;-85
2021/04/25 10:21:52;;;;;;;4.80;3.00;;;;;;;21.17;18.93;93854.88;5028873;28;20707;-86
2021/04/25 10:24:20;;;;;;;6.43;3.10;;;;;;;21.06;19.38;93829.66;4999115;28;20832;-83
2021/04/25 10:27:07;;;;;;;7.55;2.88;;;;;;;20.53;19.66;93850.00;5032720;28;20057;-84
2021/04/25 10:29:52;;;;;;;5.35;3.00;;;;;;;19.82;21.98;93844.81;5028299;28;20064;-82
2021/04/25 10:32:20;;;;;;;4.38;2.90;;;;;;;20.03;21.80;93817.75;5025357;28;20033;-83
2021/04/25 10:34:48;;;;;;;4.38;2.78;;;;;;;19.82;21.26;93834.88;5026541;28;20049;-86
2021/04/25 10:37:14;;;;;;;4.07;2.35;;;;;;;19.94;20.65;93809.09;5023461;28;20044;-84
2021/04/25 10:39:51;;;;;;;4.47;2.25;;;;;;;20.11;19.91;93833.66;5028823;28;21150;-85
2021/04/25 10:42:17;;;;;;;3.80;2.15;;;;;;;20.13;19.83;93844.84;5030215;28;20108;-84
2021/04/25 10:45:05;;;;;;;3.78;1.85;;;;;;;19.54;16.82;93838.72;5026566;28;20136;-83
2021/04/25 10:47:31;;;;;;;2.78;1.55;;;;;;;18.99;16.28;93834.91;5032795;28;20134;-85
2021/04/25 10:49:59;;;;;;;2.55;1.98;;;;;;;19.46;17.16;93811.72;5022407;28;20127;-83
2021/04/25 10:52:26;;;;;;;7.47;1.90;;;;;;;19.58;19.28;93828.88;5026180;28;20037;-83
2021/04/25 10:55:10;;;;;;;5.32;2.75;;;;;;;19.37;19.80;93829.84;5024135;28;20156;-84
2021/04/25 10:57:59;;;;;;;8.00;2.85;;;;;;;19.20;20.19;93824.00;5026722;28;20033;-86
2021/04/25 11:02:58;;;;;;;3.78;2.47;;;;;;;19.27;21.53;93827.66;5027147;28;20048;-83
2021/04/25 11:05:35;;;;;;;6.35;3.25;;;;;;;19.30;22.50;93821.59;5030745;28;20041;-86
2021/04/25 11:08:12;;;;;;;4.70;2.58;;;;;;;19.30;23.03;93818.16;5032728;28;20060;-87
2021/04/25 11:10:45;;;;;;;9.93;3.03;;;;;;;19.26;24.12;93826.06;5037852;28;20033;-92
2021/04/25 11:13:36;;;;;;;5.72;3.20;;;;;;;19.18;25.20;93826.22;5030010;28;20119;-89
2021/04/25 11:16:21;;;;;;;9.45;3.97;;;;;;;19.36;25.73;93822.91;5038389;28;20036;-91
2021/04/25 11:19:03;;;;;;;8.77;3.65;;;;;;;19.57;24.79;93817.38;5029076;28;20034;-92
2021/04/25 11:24:03;;;;;;;3.30;2.28;;;;;;;19.52;19.79;93816.84;5030946;28;20119;-91
2021/04/25 11:26:46;;;;;;;5.40;3.03;;;;;;;19.59;22.46;93806.31;5045008;28;20040;-89
2021/04/25 11:29:17;;;;;;;4.78;2.40;;;;;;;19.37;20.98;93775.47;5032000;28;20055;-90
2021/04/25 11:34:32;;;;;;;4.43;2.85;;;;;;;19.74;22.19;93798.25;5027740;28;20044;-91
2021/04/25 11:37:13;;;;;;;5.63;2.90;;;;;;;19.68;21.62;93801.56;5031023;28;20132;-90
2021/04/25 11:40:03;;;;;;;4.30;2.05;;;;;;;19.43;22.04;93785.59;5028758;28;20072;-91
2021/04/25 11:42:48;;;;;;;7.55;2.85;;;;;;;19.55;22.94;93766.00;5031037;28;22335;-88
2021/04/25 11:45:17;;;;;;;3.78;2.72;;;;;;;19.90;23.01;93784.84;5028923;28;20305;-91
2021/04/25 11:47:47;;;;;;;7.13;2.45;;;;;;;19.81;21.50;93763.59;5029208;28;20036;-85
2021/04/25 11:50:12;;;;;;;3.92;2.00;;;;;;;19.51;20.78;93772.38;5030662;28;20041;-89
2021/04/25 11:52:38;;;;;;;4.43;2.45;;;;;;;19.36;21.18;93780.03;5033329;28;20025;-91
2021/04/25 11:55:05;;;;;;;3.97;2.33;;;;;;;19.41;20.45;93773.63;5026369;28;20032;-92
2021/04/25 11:57:33;;;;;;;5.82;2.55;;;;;;;19.43;21.22;93763.38;5032684;28;20067;-87
2021/04/25 12:00:01;;;;;;;4.50;2.20;;;;;;;19.36;21.46;93749.78;5031360;28;20041;-91
2021/04/25 12:02:45;;;;;;;5.22;2.58;;;;;;;19.20;21.15;93744.41;5033927;28;20036;-91
2021/04/25 12:05:14;;;;;;;3.40;2.53;;;;;;;19.20;21.13;93760.50;5026917;28;20075;-90
2021/04/25 12:07:48;;;;;;;6.13;2.83;;;;;;;19.32;21.38;93741.66;5034208;28;20029;-86
2021/04/25 12:10:14;;;;;;;8.10;3.63;;;;;;;19.13;21.94;93764.88;5030973;28;20112;-88
2021/04/25 12:12:57;;;;;;;4.00;2.90;;;;;;;19.03;22.42;93750.06;5029141;28;20625;-92
2021/04/25 12:15:24;;;;;;;2.70;1.92;;;;;;;19.20;22.26;93749.00;5030278;28;20099;-92
2021/04/25 12:17:58;;;;;;;4.25;2.88;;;;;;;19.14;21.31;93737.75;5035697;28;20500;-89
2021/04/25 12:20:26;;;;;;;7.15;3.28;;;;;;;18.65;22.65;93704.28;5031150;28;20068;-91
2021/04/25 12:22:52;;;;;;;3.97;3.00;;;;;;;18.92;22.64;93719.53;5026499;28;20033;-91
2021/04/25 12:25:18;;;;;;;8.13;2.80;;;;;;;19.24;23.07;93739.94;5027592;28;20025;-88
2021/04/25 12:27:53;;;;;;;5.57;2.67;;;;;;;19.16;22.04;93748.09;5027434;28;20047;-89
2021/04/25 12:30:22;;;;;;;4.07;3.00;;;;;;;19.02;21.88;93737.78;5026258;28;20034;-90
2021/04/25 12:33:01;;;;;;;7.75;3.33;;;;;;;18.77;21.93;93720.28;5026413;28;20051;-91
2021/04/25 12:35:27;;;;;;;6.50;3.22;;;;;;;18.93;23.28;93697.78;5029892;28;20037;-93
2021/04/25 12:37:52;;;;;;;7.18;3.88;;;;;;;19.02;22.57;93690.38;5025272;28;20116;-92
2021/04/25 12:40:34;;;;;;;8.05;3.42;;;;;;;19.40;23.40;93713.16;5045801;28;20712;-91
2021/04/25 12:43:13;;;;;;;4.75;2.80;;;;;;;19.46;21.61;93720.59;5025591;28;20080;-90
2021/04/25 12:45:40;;;;;;;7.30;2.78;;;;;;;19.31;22.29;93697.22;5031832;28;20037;-92
2021/04/25 12:48:42;;;;;;;7.45;3.35;;;;;;;19.52;21.98;93706.94;5028212;28;20040;-90
2021/04/25 12:51:25;;;;;;;3.67;2.88;;;;;;;19.28;21.87;93711.31;5004175;28;20072;-90
2021/04/25 12:53:50;;;;;;;4.10;2.47;;;;;;;19.26;22.02;93710.88;5027667;28;20038;-91
2021/04/25 12:56:28;;;;;;;7.82;3.28;;;;;;;18.85;22.63;93700.63;5034151;28;20641;-90
2021/04/25 12:59:12;;;;;;;5.30;3.28;;;;;;;19.12;22.16;93702.47;5030938;28;20557;-90
2021/04/25 13:01:49;;;;;;;4.18;2.95;;;;;;;18.71;22.65;93706.38;5025860;28;20025;-89
2021/04/25 13:04:48;;;;;;;9.02;4.22;;;;;;;18.79;22.14;93665.28;5029415;28;20946;-89
2021/04/25 13:07:40;;;;;;;4.70;3.20;;;;;;;18.85;22.33;93700.63;5019068;28;20082;-88
2021/04/25 13:10:18;;;;;;;7.35;3.10;;;;;;;18.72;23.17;93685.72;5045435;28;20037;-88
2021/04/25 13:12:49;;;;;;;9.93;4.28;;;;;;;18.99;22.79;93683.03;5028308;28;20059;-89
2021/04/25 13:15:17;;;;;;;7.20;4.45;;;;;;;19.15;23.40;93695.66;5048295;28;20448;-92
2021/04/25 13:17:53;;;;;;;6.95;4.25;;;;;;;19.20;22.44;93690.06;5030249;28;20528;-91
2021/04/25 13:20:29;;;;;;;3.30;2.90;;;;;;;18.89;21.87;93653.28;5031970;28;20072;-88
2021/04/25 13:23:18;;;;;;;4.68;3.28;;;;;;;19.25;22.49;93671.84;5050347;28;20028;-90
2021/04/25 13:25:53;;;;;;;4.90;2.78;;;;;;;19.47;22.02;93678.50;5027910;28;20036;-89
2021/04/25 13:28:20;;;;;;;4.40;3.38;;;;;;;19.46;22.37;93669.69;5033903;28;20057;-84
2021/04/25 13:30:53;;;;;;;3.58;3.05;;;;;;;19.46;21.69;93656.28;5046670;28;20059;-87
2021/04/25 13:33:21;;;;;;;5.40;3.40;;;;;;;19.48;22.65;93663.19;5030723;28;20037;-87
2021/04/25 13:35:47;;;;;;;5.10;2.97;;;;;;;19.29;22.88;93648.59;5026830;28;20044;-87
2021/04/25 13:38:16;;;;;;;7.70;4.22;;;;;;;19.42;23.19;93659.97;5029953;28;20422;-87
2021/04/25 13:40:43;;;;;;;7.80;3.78;;;;;;;19.62;23.16;93660.84;5030053;28;20508;-86
2021/04/25 13:43:09;;;;;;;7.60;3.50;;;;;;;19.45;21.99;93652.03;5030444;28;20069;-86
2021/04/25 13:45:36;;;;;;;3.28;2.75;;;;;;;19.54;23.09;93672.53;5031217;28;20072;-86
2021/04/25 13:48:02;;;;;;;4.05;2.78;;;;;;;19.44;22.37;93644.38;5029074;28;20043;-88
2021/04/25 13:50:28;;;;;;;6.18;3.28;;;;;;;19.52;22.07;93638.03;5047249;28;20084;-87
2021/04/25 13:52:54;;;;;;;6.88;2.85;;;;;;;19.76;22.01;93663.84;5028067;28;20029;-88
2021/04/25 13:55:20;;;;;;;6.82;3.92;;;;;;;19.71;23.04;93664.13;5032177;28;20396;-86
2021/04/25 13:57:46;;;;;;;5.50;3.72;;;;;;;19.32;22.55;93650.56;5027756;28;20072;-86
2021/04/25 14:00:15;;;;;;;7.53;3.42;;;;;;;19.53;23.03;93665.63;5025383;28;20044;-86
2021/04/25 14:02:41;;;;;;;9.05;3.70;;;;;;;19.40;22.69;93657.63;5031908;28;20391;-85
2021/04/25 14:05:09;;;;;;;4.32;3.13;;;;;;;19.28;22.74;93665.78;5026202;28;20418;-86
2021/04/25 14:07:35;;;;;;;6.47;3.08;;;;;;;19.29;23.18;93656.63;5031801;28;20017;-86
2021/04/25 14:10:04;;;;;;;6.60;3.65;;;;;;;19.24;22.79;93659.56;5026845;28;20037;-87
2021/04/25 14:12:33;;;;;;;5.30;3.30;;;;;;;19.41;22.73;93645.78;5021140;28;20054;-88
2021/04/25 14:14:59;;;;;;;15.68;10.40;;;;;;;19.68;23.01;93646.06;5022132;28;20745;-85
2021/04/25 14:17:25;;;;;;;5.50;3.33;;;;;;;19.89;23.32;93662.59;5016937;28;20150;-86
2021/04/25 14:19:51;;;;;;;3.50;3.08;;;;;;;19.95;23.00;93650.50;5024157;28;20473;-88
2021/04/25 14:22:16;;;;;;;5.10;3.05;;;;;;;19.89;22.25;93649.19;5027997;28;20404;-85
2021/04/25 14:24:41;;;;;;;7.40;3.53;;;;;;;19.68;22.75;93646.06;5020196;28;20497;-87
2021/04/25 14:27:07;;;;;;;4.97;3.65;;;;;;;19.81;22.90;93650.19;5025123;28;20037;-85
2021/04/25 14:29:33;;;;;;;6.85;3.92;;;;;;;19.84;22.32;93644.13;5016967;28;20053;-87
2021/04/25 14:31:59;;;;;;;7.60;3.50;;;;;;;19.69;22.31;93613.56;5023408;28;20888;-85
2021/04/25 14:34:24;;;;;;;6.22;3.30;;;;;;;19.82;22.01;93641.81;5027049;28;20033;-90
2021/04/25 14:36:49;;;;;;;4.60;3.28;;;;;;;19.67;22.30;93612.34;5025844;28;20084;-87
2021/04/25 14:39:15;;;;;;;9.50;3.53;;;;;;;19.79;22.92;93636.38;5029106;28;20503;-89
2021/04/25 14:41:41;;;;;;;6.35;4.10;;;;;;;19.56;22.89;93611.31;5028808;28;20574;-89
2021/04/25 14:44:08;;;;;;;4.88;3.22;;;;;;;19.84;22.67;93642.22;5021636;28;20041;-90
2021/04/25 14:46:34;;;;;;;7.00;3.58;;;;;;;19.70;22.71;93635.75;5032829;28;20031;-86
2021/04/25 14:48:59;;;;;;;4.50;3.00;;;;;;;19.63;22.85;93644.44;5045790;28;20353;-90
2021/04/25 14:51:27;;;;;;;8.52;4.57;;;;;;;19.84;22.70;93633.41;5030022;28;20084;-91
2021/04/25 14:53:53;;;;;;;5.63;3.17;;;;;;;19.74;22.74;93601.78;5032729;28;20039;-91
2021/04/25 14:56:19;;;;;;;9.85;6.80;;;;;;;19.93;23.45;93609.84;5025122;28;20049;-93
2021/04/25 14:58:45;;;;;;;8.48;4.80;;;;;;;20.08;21.99;93633.16;5044646;28;20040;-92
2021/04/25 15:01:10;;;;;;;3.45;2.85;;;;;;;19.99;21.59;93635.25;5040362;28;20045;-90
2021/04/25 15:03:36;;;;;;;6.45;3.63;;;;;;;19.87;22.02;93608.56;5027073;28;20122;-92
2021/04/25 15:06:03;;;;;;;7.93;3.70;;;;;;;20.19;22.95;93636.81;5025096;28;20041;-88
2021/04/25 15:08:29;;;;;;;5.28;2.90;;;;;;;20.12;22.39;93625.97;5024090;28;20048;-90
2021/04/25 15:10:54;;;;;;;5.75;3.20;;;;;;;19.93;22.68;93631.31;5026090;28;20231;-89
2021/04/25 15:13:20;;;;;;;6.28;3.47;;;;;;;19.82;22.79;93625.72;5031157;28;20524;-92
2021/04/25 15:15:45;;;;;;;6.68;3.75;;;;;;;19.65;23.08;93625.28;5025559;28;20092;-91
2021/04/25 15:18:11;;;;;;;5.72;4.03;;;;;;;19.54;22.95;93617.03;5025186;28;20422;-89
2021/04/25 15:20:37;;;;;;;9.02;3.85;;;;;;;19.31;22.51;93606.13;5026994;28;20527;-89
2021/04/25 15:23:05;;;;;;;6.60;3.40;;;;;;;19.27;22.93;93617.88;5025742;28;20035;-86
2021/04/25 15:25:31;;;;;;;6.80;4.15;;;;;;;19.44;23.36;93634.44;5027827;28;20056;-88
2021/04/25 15:27:57;;;;;;;4.80;3.40;;;;;;;19.49;22.89;93619.97;5027316;28;20450;-89
2021/04/25 15:30:24;;;;;;;5.93;3.50;;;;;;;19.31;23.29;93614.16;5028174;28;20826;-89
2021/04/25 15:32:51;;;;;;;6.25;3.30;;;;;;;19.49;22.44;93621.88;5025861;28;20567;-90
2021/04/25 15:35:17;;;;;;;5.88;3.03;;;;;;;19.60;22.93;93618.31;5025948;28;20041;-85
2021/04/25 15:37:51;;;;;;;5.40;2.83;;;;;;;19.72;23.52;93614.75;5049836;28;20021;-90
2021/04/25 15:40:19;;;;;;;4.65;3.00;;;;;;;19.72;24.15;93610.16;5029761;28;20104;-89
2021/04/25 15:42:49;;;;;;;4.63;3.78;;;;;;;19.77;24.79;93607.22;5027701;28;20610;-85
2021/04/25 15:45:17;;;;;;;6.85;2.92;;;;;;;19.79;23.43;93612.97;5029130;28;20048;-91
2021/04/25 15:47:51;;;;;;;6.85;2.65;;;;;;;19.80;23.14;93603.81;5031435;28;20315;-91
2021/04/25 15:50:17;;;;;;;7.53;3.75;;;;;;;19.75;22.15;93619.41;5041041;28;20068;-88
2021/04/25 15:52:43;;;;;;;7.35;4.03;;;;;;;19.49;22.26;93605.81;5032155;28;20031;-87
2021/04/25 15:55:11;;;;;;;6.82;2.75;;;;;;;19.25;22.54;93601.41;5024931;28;20041;-89
2021/04/25 15:57:37;;;;;;;7.03;3.83;;;;;;;19.34;22.91;93610.81;5021353;28;20033;-88
2021/04/25 16:00:08;;;;;;;4.25;3.38;;;;;;;19.26;23.46;93613.63;5024297;28;20131;-88
2021/04/25 16:02:33;;;;;;;5.60;3.70;;;;;;;19.03;25.97;93600.09;5025719;28;20389;-86
2021/04/25 16:04:59;;;;;;;7.95;4.28;;;;;;;18.78;27.15;93606.72;5023391;28;20029;-89
2021/04/25 16:07:24;;;;;;;5.72;3.58;;;;;;;18.52;27.75;93607.94;5030625;28;20563;-89
2021/04/25 16:09:51;;;;;;;8.70;4.25;;;;;;;18.40;28.25;93602.66;5040941;28;20045;-89
2021/04/25 16:12:17;;;;;;;8.38;3.85;;;;;;;18.40;28.43;93594.63;5022940;28;20052;-86
2021/04/25 16:14:44;;;;;;;12.38;4.50;;;;;;;18.35;28.22;93615.50;5020739;28;20040;-86
2021/04/25 16:17:10;;;;;;;10.13;4.60;;;;;;;18.23;28.60;93599.50;5020770;28;20065;-83
2021/04/25 16:19:38;;;;;;;6.80;3.75;;;;;;;18.12;29.27;93609.91;5025823;28;20383;-88
2021/04/25 16:22:10;;;;;;;7.47;4.78;;;;;;;17.91;30.30;93606.63;5025281;28;20033;-81
2021/04/25 16:24:36;;;;;;;11.23;4.35;;;;;;;17.77;31.35;93588.28;5003602;28;20042;-81
2021/04/25 16:27:02;;;;;;;7.10;4.85;;;;;;;17.78;31.12;93605.88;5023956;28;20074;-82
2021/04/25 16:29:28;;;;;;;9.25;4.93;;;;;;;17.71;31.30;93611.00;5021375;28;20113;-82
2021/04/25 16:31:54;;;;;;;5.18;4.68;;;;;;;17.73;32.02;93625.59;5020516;28;20111;-81
2021/04/25 16:34:20;;;;;;;8.07;5.63;;;;;;;17.59;33.32;93627.06;5024849;28;20036;-80
2021/04/25 16:36:46;;;;;;;8.40;6.22;;;;;;;17.49;34.10;93628.28;5024654;28;20037;-81
2021/04/25 16:39:13;;;;;;;9.95;6.20;;;;;;;17.45;34.31;93634.59;5023291;28;20049;-81
2021/04/25 16:41:45;;;;;;;8.70;5.47;;;;;;;17.46;34.43;93636.16;5027705;28;20037;-80
2021/04/25 16:44:12;;;;;;;9.48;6.95;;;;;;;17.17;35.07;93623.81;5022200;28;20492;-81
2021/04/25 16:46:38;;;;;;;12.05;6.00;;;;;;;17.24;35.06;93629.38;5028226;28;20045;-81
2021/04/25 16:49:04;;;;;;;14.13;6.68;;;;;;;17.17;34.97;93624.59;5020951;28;20056;-81
2021/04/25 16:51:34;;;;;;;12.77;8.18;;;;;;;17.09;35.38;93638.06;5028433;28;20037;-80
2021/04/25 16:53:59;;;;;;;10.73;6.88;;;;;;;17.00;35.76;93629.38;5028857;28;20055;-81
2021/04/25 16:56:25;;;;;;;9.50;6.60;;;;;;;17.01;35.22;93641.59;5046997;28;20041;-80
2021/04/25 16:58:50;;;;;;;8.52;6.00;;;;;;;16.71;35.40;93623.06;5030141;28;20045;-80
2021/04/25 17:01:16;;;;;;;6.20;5.47;;;;;;;16.69;35.83;93629.88;5032509;28;20055;-80
2021/04/25 17:03:42;;;;;;;11.30;5.88;;;;;;;16.66;35.76;93652.66;5051985;28;20124;-80
2021/04/25 17:06:07;;;;;;;9.38;6.05;;;;;;;16.52;36.04;93635.34;5025123;28;20688;-80
2021/04/25 17:08:33;;;;;;;7.53;6.10;;;;;;;16.51;36.08;93645.25;5026115;28;20072;-79
2021/04/25 17:10:58;;;;;;;9.75;7.07;;;;;;;16.40;36.71;93662.75;5034713;28;20418;-80
2021/04/25 17:13:25;;;;;;;13.45;7.78;;;;;;;16.19;37.26;93656.66;5028257;28;20021;-80
2021/04/25 17:15:50;;;;;;;18.95;16.90;;;;;;;16.13;37.76;93657.94;5028794;28;20835;-80
2021/04/25 17:18:16;;;;;;;11.55;7.93;;;;;;;16.11;38.03;93668.19;5025080;28;20116;-80
2021/04/25 17:20:43;;;;;;;13.07;8.02;;;;;;;15.98;38.31;93668.09;5019698;28;20554;-80
2021/04/25 17:23:08;;;;;;;13.88;7.18;;;;;;;16.01;38.32;93669.34;5031337;28;20113;-80
2021/04/25 17:25:34;;;;;;;9.52;6.75;;;;;;;15.91;38.41;93665.19;5032455;28;20035;-81
2021/04/25 17:27:59;;;;;;;11.98;6.50;;;;;;;15.81;38.60;93678.09;5027537;28;20751;-80
2021/04/25 17:30:26;;;;;;;11.93;6.70;;;;;;;15.72;38.69;93680.03;5030456;28;20053;-80
2021/04/25 17:32:52;;;;;;;14.43;8.50;;;;;;;15.80;38.58;93679.97;5028208;28;20056;-80
2021/04/25 17:35:20;;;;;;;45.42;28.85;;;;;;;15.71;38.55;93671.25;5031734;28;20037;-80
2021/04/25 17:37:51;;;;;;;25.05;11.30;;;;;;;15.57;39.51;93681.38;5035194;28;20037;-80
2021/04/25 17:40:18;;;;;;;12.73;10.32;;;;;;;15.50;39.36;93691.72;5031436;28;21293;-80
2021/04/25 17:42:47;;;;;;;17.98;11.55;;;;;;;15.31;39.77;93689.47;5029102;28;20052;-80
2021/04/25 17:45:15;;;;;;;14.80;10.73;;;;;;;15.15;40.17;93699.06;5032310;28;20137;-80
2021/04/25 17:47:44;;;;;;;28.58;16.75;;;;;;;14.92;40.53;93703.06;5028701;28;20080;-80
2021/04/25 17:50:12;;;;;;;18.05;13.65;;;;;;;14.70;40.97;93701.41;5028378;28;20582;-80
2021/04/25 17:52:38;;;;;;;17.58;13.05;;;;;;;14.50;42.10;93702.84;5032516;28;20024;-79
2021/04/25 17:55:05;;;;;;;17.05;12.13;;;;;;;14.36;42.45;93717.38;5031335;28;20037;-80
2021/04/25 17:57:31;;;;;;;17.73;12.40;;;;;;;14.32;42.77;93725.16;5028266;28;20048;-80
2021/04/25 17:59:56;;;;;;;16.83;12.02;;;;;;;14.24;43.10;93718.75;5024766;28;20473;-80
2021/04/25 18:02:22;;;;;;;14.02;10.90;;;;;;;14.21;43.11;93734.56;5030102;28;20040;-80
2021/04/25 18:04:48;;;;;;;21.45;12.85;;;;;;;14.14;43.43;93739.53;5024951;28;20690;-81
2021/04/25 18:07:13;;;;;;;24.48;12.25;;;;;;;14.29;43.24;93729.25;5034472;28;20115;-80
2021/04/25 18:09:43;;;;;;;14.88;10.70;;;;;;;14.32;43.42;93757.84;5028711;28;20654;-80
2021/04/25 18:12:09;;;;;;;19.30;11.07;;;;;;;14.12;43.73;93750.47;5028316;28;20045;-80
2021/04/25 18:14:36;;;;;;;15.88;11.73;;;;;;;14.06;43.96;93757.06;5028838;28;20052;-80
2021/04/25 18:17:03;;;;;;;20.75;12.80;;;;;;;14.01;44.57;93749.22;5029122;28;20025;-80
2021/04/25 18:19:29;;;;;;;16.42;11.45;;;;;;;13.97;44.02;93744.84;5032985;28;20036;-79
2021/04/25 18:21:54;;;;;;;23.58;18.92;;;;;;;14.02;44.35;93755.31;5031248;28;20405;-80
2021/04/25 18:24:20;;;;;;;23.77;13.85;;;;;;;13.87;44.62;93760.00;5025864;28;20033;-80
2021/04/25 18:26:45;;;;;;;26.38;16.65;;;;;;;13.72;45.39;93767.59;5027823;28;20047;-80
2021/04/25 18:29:11;;;;;;;36.45;17.88;;;;;;;13.62;45.73;93773.19;5030600;28;20536;-80
2021/04/25 18:31:36;;;;;;;22.60;13.65;;;;;;;13.49;45.76;93774.09;5027087;28;20134;-80
2021/04/25 18:34:03;;;;;;;19.58;12.88;;;;;;;13.38;46.52;93769.03;5028882;28;20041;-80
2021/04/25 18:36:28;;;;;;;20.70;12.85;;;;;;;13.39;46.46;93777.75;5028037;28;20064;-80
2021/04/25 18:38:56;;;;;;;18.25;12.50;;;;;;;13.30;46.61;93790.22;5028283;28;20536;-80
2021/04/25 18:41:25;;;;;;;19.15;11.00;;;;;;;13.17;46.96;93794.53;5030436;28;20499;-80
2021/04/25 18:43:52;;;;;;;18.77;11.13;;;;;;;13.14;47.27;93794.38;5026621;28;20622;-80
2021/04/25 18:46:17;;;;;;;16.67;11.63;;;;;;;13.06;47.36;93806.44;5030422;28;20116;-80
2021/04/25 18:48:50;;;;;;;17.08;11.75;;;;;;;13.09;47.58;93810.38;5029253;28;20040;-79
2021/04/25 18:51:16;;;;;;;21.15;11.73;;;;;;;13.05;47.80;93812.06;5029418;28;20501;-80
2021/04/25 18:53:42;;;;;;;14.48;11.70;;;;;;;13.05;47.73;93814.72;5029987;28;20144;-79
2021/04/25 18:56:09;;;;;;;15.88;10.80;;;;;;;12.97;47.85;93821.53;5040239;28;20106;-80
2021/04/25 18:58:36;;;;;;;15.57;11.20;;;;;;;12.82;48.35;93808.63;5030784;28;20013;-79
2021/04/25 19:01:05;;;;;;;15.50;11.13;;;;;;;12.68;48.30;93786.69;5029751;28;20379;-81
2021/04/25 19:03:31;;;;;;;19.17;12.57;;;;;;;12.79;48.63;93819.84;5030150;28;20060;-80
2021/04/25 19:05:56;;;;;;;20.02;11.98;;;;;;;12.74;48.50;93817.31;5029089;28;20536;-80
2021/04/25 19:08:26;;;;;;;19.65;13.02;;;;;;;12.71;48.70;93828.50;5030552;28;20249;-81
2021/04/25 19:10:51;;;;;;;18.20;12.63;;;;;;;12.62;48.90;93815.19;5029838;28;20217;-80
2021/04/25 19:13:17;;;;;;;28.10;15.02;;;;;;;12.70;48.95;93837.56;5049637;28;20108;-81
2021/04/25 19:15:43;;;;;;;20.77;13.07;;;;;;;12.58;49.00;93833.56;5028455;28;20131;-81
2021/04/25 19:18:08;;;;;;;27.00;14.45;;;;;;;12.47;49.32;93837.53;5029422;28;20037;-81
2021/04/25 19:20:34;;;;;;;26.17;14.02;;;;;;;12.26;49.55;93817.06;5026313;28;20037;-82
2021/04/25 19:23:00;;;;;;;22.83;14.77;;;;;;;12.34;49.68;93829.63;5027000;28;20426;-81
2021/04/25 19:25:28;;;;;;;28.40;15.35;;;;;;;12.41;49.69;93845.91;5027834;28;20370;-82
2021/04/25 19:27:54;;;;;;;25.98;15.75;;;;;;;12.34;49.78;93845.50;5028433;28;20111;-82
2021/04/25 19:30:22;;;;;;;28.67;16.38;;;;;;;12.24;50.35;93843.84;5047498;28;20128;-82
2021/04/25 19:32:47;;;;;;;30.67;18.77;;;;;;;12.20;50.48;93837.59;5029053;28;20188;-81
2021/04/25 19:35:15;;;;;;;38.67;20.67;;;;;;;12.29;51.13;93838.47;5026834;28;20044;-81
2021/04/25 19:37:42;;;;;;;45.60;27.35;;;;;;;12.18;51.33;93826.50;5031837;28;20021;-81
2021/04/25 19:40:11;;;;;;;33.63;19.02;;;;;;;12.12;51.64;93832.97;5026643;28;20048;-81
2021/04/25 19:42:37;;;;;;;33.72;17.45;;;;;;;11.91;51.86;93835.28;5044697;28;20041;-81
2021/04/25 19:45:08;;;;;;;31.23;18.05;;;;;;;11.83;52.03;93837.81;5030432;28;20045;-81
2021/04/25 19:47:35;;;;;;;29.05;16.90;;;;;;;11.66;52.25;93818.00;5026907;28;20037;-81
2021/04/25 19:50:03;;;;;;;25.98;16.60;;;;;;;11.71;52.23;93823.19;5031376;28;20535;-81
2021/04/25 19:52:28;;;;;;;26.80;17.17;;;;;;;11.72;52.49;93829.28;5031093;28;20044;-81
2021/04/25 19:54:54;;;;;;;21.50;13.73;;;;;;;11.79;52.08;93826.25;5025682;28;20049;-81
2021/04/25 19:57:21;;;;;;;26.65;14.52;;;;;;;11.76;52.10;93824.19;5029664;28;20036;-82
2021/04/25 19:59:48;;;;;;;26.60;15.45;;;;;;;11.78;52.54;93827.34;5028383;28;20527;-81
2021/04/25 20:02:14;;;;;;;19.10;12.93;;;;;;;11.95;51.85;93828.31;5028092;28;20132;-81
2021/04/25 20:04:40;;;;;;;18.65;12.70;;;;;;;11.95;52.19;93830.16;5026191;28;20021;-81
2021/04/25 20:07:05;;;;;;;22.75;14.77;;;;;;;11.62;52.97;93819.66;5028471;28;20641;-81
2021/04/25 20:09:31;;;;;;;21.75;14.40;;;;;;;11.52;52.89;93806.63;5026453;28;20041;-81
2021/04/25 20:11:56;;;;;;;24.33;16.25;;;;;;;11.64;52.93;93835.22;5026405;28;20159;-81
2021/04/25 20:14:21;;;;;;;17.52;11.93;;;;;;;11.52;53.03;93811.13;5030006;28;20385;-81
2021/04/25 20:16:47;;;;;;;17.05;12.57;;;;;;;11.50;53.51;93829.94;5043019;28;20037;-83
2021/04/25 20:19:12;;;;;;;19.23;12.10;;;;;;;11.56;53.50;93826.13;5028869;28;20052;-82
2021/04/25 20:21:37;;;;;;;24.88;13.05;;;;;;;11.40;53.80;93816.88;5027857;28;20029;-81
2021/04/25 20:24:03;;;;;;;20.88;12.45;;;;;;;11.44;53.70;93822.38;5039751;28;20140;-81
2021/04/25 20:26:29;;;;;;;19.17;12.10;;;;;;;11.31;53.94;93813.34;5028460;28;20422;-82